Time;durP1;ratioP1;P1;durP2;ratioP2;P2;SDS_P1;SDS_P2;PMS_P1;PMS_P2;Temp;Humidity;BMP_temperature;BMP_pressure;BME280_temperature;BME280_humidity;BME280_pressure;Samples;Min_cycle;Max_cycle;Signal;HPM_P1;HPM_P2
2022/01/15 00:00:21;;;;;;;78.28;24.00;;;;;;;5.00;100.00;102968.44;5083532;28;20629;-72
2022/01/15 00:02:47;;;;;;;80.65;27.02;;;;;;;4.99;100.00;102964.88;5085105;28;20048;-73
2022/01/15 00:05:14;;;;;;;77.25;28.15;;;;;;;4.97;100.00;102966.31;5068344;28;20788;-72
2022/01/15 00:07:44;;;;;;;98.45;30.77;;;;;;;4.96;100.00;102968.22;5067355;28;20135;-71
2022/01/15 00:10:11;;;;;;;94.25;28.60;;;;;;;4.98;100.00;102967.94;5065188;28;20056;-72
2022/01/15 00:12:40;;;;;;;102.85;31.30;;;;;;;4.99;100.00;102948.41;5067966;28;20139;-71
2022/01/15 00:15:13;;;;;;;95.60;29.05;;;;;;;5.03;100.00;102948.63;5068736;28;20566;-72
2022/01/15 00:20:16;;;;;;;86.45;26.77;;;;;;;5.06;100.00;102948.81;5066209;28;20131;-71
2022/01/15 00:22:43;;;;;;;87.63;26.77;;;;;;;5.10;100.00;102949.03;5067387;28;20131;-74
2022/01/15 00:25:10;;;;;;;87.40;26.00;;;;;;;5.07;100.00;102938.66;5070117;28;20046;-70
2022/01/15 00:27:37;;;;;;;71.80;24.38;;;;;;;5.06;100.00;102937.03;5065806;28;20469;-71
2022/01/15 00:30:04;;;;;;;80.82;24.90;;;;;;;5.01;100.00;102939.88;5071666;28;20055;-71
2022/01/15 00:32:31;;;;;;;88.45;28.38;;;;;;;5.01;100.00;102945.38;5070098;28;20263;-72
2022/01/15 00:35:00;;;;;;;70.65;23.92;;;;;;;5.03;100.00;102941.19;5070650;28;20075;-72
2022/01/15 00:37:31;;;;;;;83.75;26.77;;;;;;;5.04;100.00;102920.84;5076636;28;20052;-73
2022/01/15 00:40:02;;;;;;;85.70;26.65;;;;;;;5.06;100.00;102920.56;5071245;28;20052;-72
2022/01/15 00:42:30;;;;;;;84.28;27.98;;;;;;;5.07;100.00;102923.00;5066235;28;20074;-74
2022/01/15 00:44:58;;;;;;;83.53;26.65;;;;;;;5.07;100.00;102928.47;5070479;28;20044;-71
2022/01/15 00:47:28;;;;;;;84.95;25.52;;;;;;;5.07;100.00;102924.94;5067707;28;20581;-71
2022/01/15 00:49:55;;;;;;;82.35;25.85;;;;;;;5.05;100.00;102922.50;5070534;28;20144;-71
2022/01/15 00:52:21;;;;;;;84.93;25.67;;;;;;;5.03;100.00;102918.44;5068541;28;20098;-70
2022/01/15 00:54:48;;;;;;;83.97;26.17;;;;;;;5.03;100.00;102907.47;5070178;28;20053;-71
2022/01/15 00:57:14;;;;;;;87.63;28.08;;;;;;;5.08;100.00;102910.09;5070780;28;20128;-71
2022/01/15 00:59:41;;;;;;;87.40;26.77;;;;;;;5.09;100.00;102915.28;5070489;28;20173;-70
2022/01/15 01:02:07;;;;;;;80.50;26.63;;;;;;;5.05;100.00;102916.19;5071483;28;20507;-71
2022/01/15 01:04:34;;;;;;;72.78;23.85;;;;;;;5.02;100.00;102920.38;5065878;28;20507;-71
2022/01/15 01:07:01;;;;;;;78.47;24.83;;;;;;;5.01;100.00;102907.78;5066763;28;20548;-72
2022/01/15 01:09:42;;;;;;;85.32;27.08;;;;;;;5.01;100.00;102899.56;5082492;28;20589;-71
2022/01/15 01:12:25;;;;;;;75.97;24.70;;;;;;;5.03;100.00;102897.28;5071282;28;20436;-71
2022/01/15 01:20:38;;;;;;;72.55;23.92;;;;;;;5.07;100.00;102889.28;5069554;28;20058;-71
2022/01/15 01:23:04;;;;;;;80.38;26.08;;;;;;;5.08;100.00;102888.97;5069097;28;20147;-71
2022/01/15 01:25:38;;;;;;;79.03;27.10;;;;;;;5.07;100.00;102883.78;5060042;28;20136;-71
2022/01/15 01:28:13;;;;;;;83.00;23.33;;;;;;;5.08;100.00;102891.72;5074695;28;20048;-74
2022/01/15 01:30:54;;;;;;;;;;;;;;;5.07;100.00;102892.81;5071326;28;20079;-71
2022/01/15 01:36:14;;;;;;;75.10;23.88;;;;;;;5.05;100.00;102873.09;5070528;28;20498;-73
2022/01/15 01:41:14;;;;;;;61.67;20.52;;;;;;;5.05;100.00;102877.78;5068478;28;20052;-71
2022/01/15 01:43:47;;;;;;;76.18;23.13;;;;;;;5.05;100.00;102880.53;5069654;28;20682;-72
2022/01/15 01:48:54;;;;;;;77.18;24.02;;;;;;;5.03;100.00;102877.28;5063976;28;20566;-71
2022/01/15 01:51:29;;;;;;;67.32;23.40;;;;;;;5.05;100.00;102886.84;5068622;28;20054;-73
2022/01/15 01:54:04;;;;;;;71.50;24.75;;;;;;;5.03;100.00;102878.09;5068890;28;20059;-72
2022/01/15 01:56:31;;;;;;;74.35;25.17;;;;;;;5.05;100.00;102878.59;5071166;28;21014;-71
2022/01/15 01:58:58;;;;;;;71.97;23.33;;;;;;;5.04;100.00;102874.22;5065927;28;20796;-71
2022/01/15 02:01:25;;;;;;;75.53;23.45;;;;;;;5.05;100.00;102873.09;5068427;28;20055;-72
2022/01/15 02:03:53;;;;;;;71.28;24.92;;;;;;;5.05;100.00;102866.81;5068405;28;20087;-73
2022/01/15 02:06:19;;;;;;;67.65;22.52;;;;;;;5.02;100.00;102860.00;5064082;28;20102;-72
2022/01/15 02:08:50;;;;;;;70.20;23.02;;;;;;;5.02;100.00;102861.94;5068615;28;20051;-72
2022/01/15 02:11:17;;;;;;;62.40;22.80;;;;;;;5.05;100.00;102873.09;5066960;28;20059;-72
2022/01/15 02:13:45;;;;;;;64.95;23.60;;;;;;;5.04;100.00;102868.72;5066627;28;20048;-71
2022/01/15 02:16:14;;;;;;;58.38;21.30;;;;;;;5.03;100.00;102861.63;5068235;28;20121;-71
2022/01/15 02:18:41;;;;;;;57.22;21.27;;;;;;;5.01;100.00;102855.66;5069352;28;20060;-71
2022/01/15 02:23:44;;;;;;;59.67;22.40;;;;;;;5.01;100.00;102836.44;5068422;28;20139;-72
2022/01/15 02:26:15;;;;;;;65.40;21.25;;;;;;;5.01;100.00;102843.84;5064465;28;20044;-72
2022/01/15 02:28:45;;;;;;;69.32;21.85;;;;;;;5.02;100.00;102848.22;5067085;28;20415;-72
2022/01/15 02:31:15;;;;;;;56.70;20.92;;;;;;;5.03;100.00;102845.16;5067609;28;20056;-71
2022/01/15 02:33:44;;;;;;;57.55;20.90;;;;;;;5.00;100.00;102834.78;5068954;28;20171;-71
2022/01/15 02:36:13;;;;;;;66.50;23.88;;;;;;;5.03;100.00;102845.16;5072617;28;20098;-71
2022/01/15 02:38:42;;;;;;;72.25;22.48;;;;;;;5.01;100.00;102841.94;5080020;28;20132;-71
2022/01/15 02:41:10;;;;;;;61.05;22.27;;;;;;;5.02;100.00;102840.81;5066423;28;20079;-72
2022/01/15 02:43:37;;;;;;;70.53;23.90;;;;;;;4.99;100.00;102833.19;5068391;28;20648;-71
2022/01/15 02:48:54;;;;;;;59.72;22.02;;;;;;;5.00;100.00;102829.31;5066736;28;20164;-71
2022/01/15 02:51:26;;;;;;;65.30;23.02;;;;;;;4.98;100.00;102837.06;5068014;28;20430;-71
2022/01/15 02:53:56;;;;;;;62.72;21.10;;;;;;;5.00;100.00;102829.31;5066761;28;20163;-71
2022/01/15 02:56:26;;;;;;;65.47;22.63;;;;;;;5.02;100.00;102809.78;5068120;28;20048;-72
2022/01/15 02:58:53;;;;;;;67.75;23.50;;;;;;;5.00;100.00;102812.84;5067396;28;20051;-73
2022/01/15 03:01:21;;;;;;;69.63;22.10;;;;;;;4.98;100.00;102819.78;5063126;28;20052;-73
2022/01/15 03:03:47;;;;;;;63.60;22.73;;;;;;;4.97;100.00;102813.47;5065219;28;20513;-73
2022/01/15 03:06:16;;;;;;;64.90;23.02;;;;;;;4.99;100.00;102810.41;5068316;28;20050;-71
2022/01/15 03:08:44;;;;;;;65.72;22.48;;;;;;;5.02;100.00;102802.38;5068383;28;20600;-71
2022/01/15 03:11:14;;;;;;;62.25;22.38;;;;;;;5.02;100.00;102796.91;5067187;28;20151;-71
2022/01/15 03:13:42;;;;;;;66.85;23.73;;;;;;;5.02;100.00;102799.63;5066683;28;20056;-72
2022/01/15 03:16:13;;;;;;;57.92;21.90;;;;;;;5.04;100.00;102800.13;5067009;28;20539;-70
2022/01/15 03:18:40;;;;;;;65.43;21.17;;;;;;;5.03;100.00;102782.03;5060033;28;20608;-69
2022/01/15 03:21:06;;;;;;;67.70;21.02;;;;;;;5.05;100.00;102788.06;5066330;28;20135;-71
2022/01/15 03:23:33;;;;;;;64.88;22.20;;;;;;;5.02;100.00;102791.41;5065607;28;20056;-71
2022/01/15 03:26:00;;;;;;;69.03;22.48;;;;;;;5.02;100.00;102785.91;5060636;28;20044;-71
2022/01/15 03:28:26;;;;;;;62.65;22.77;;;;;;;5.05;100.00;102777.06;5063965;28;20128;-71
2022/01/15 03:30:53;;;;;;;63.30;22.30;;;;;;;5.06;100.00;102772.38;5057782;28;20168;-71
2022/01/15 03:33:19;;;;;;;59.55;21.00;;;;;;;5.07;100.00;102776.75;5063971;28;20048;-70
2022/01/15 03:35:46;;;;;;;74.22;22.58;;;;;;;5.09;100.00;102786.31;5079358;28;20054;-72
2022/01/15 03:38:13;;;;;;;68.13;23.48;;;;;;;5.08;100.00;102778.38;5065585;28;20433;-71
2022/01/15 03:40:40;;;;;;;60.30;20.40;;;;;;;5.07;100.00;102769.31;5066830;28;20062;-72
2022/01/15 03:43:06;;;;;;;62.58;21.83;;;;;;;5.09;100.00;102772.59;5061684;28;20064;-72
2022/01/15 03:45:33;;;;;;;68.00;21.92;;;;;;;5.11;100.00;102775.00;5067655;28;20192;-72
2022/01/15 03:48:00;;;;;;;60.58;22.50;;;;;;;5.10;100.00;102763.22;5065869;28;20584;-72
2022/01/15 03:50:27;;;;;;;70.95;23.15;;;;;;;5.11;100.00;102764.88;5070352;28;20052;-72
2022/01/15 03:52:55;;;;;;;66.47;22.05;;;;;;;5.11;100.00;102750.31;5066998;28;20060;-70
2022/01/15 03:55:22;;;;;;;65.60;22.02;;;;;;;5.09;100.00;102750.63;5063194;28;20052;-72
2022/01/15 03:57:49;;;;;;;63.72;22.20;;;;;;;5.09;100.00;102756.13;5073025;28;20056;-71
2022/01/15 04:00:20;;;;;;;61.20;21.88;;;;;;;5.10;100.00;102760.47;5070667;28;20131;-72
2022/01/15 04:02:48;;;;;;;72.50;22.85;;;;;;;5.08;100.00;102749.00;5065051;28;20186;-74
2022/01/15 04:05:15;;;;;;;60.70;20.20;;;;;;;5.11;100.00;102753.88;5067273;28;20053;-70
2022/01/15 04:07:42;;;;;;;63.50;23.92;;;;;;;5.10;100.00;102751.44;5066981;28;20076;-72
2022/01/15 04:10:11;;;;;;;58.65;20.13;;;;;;;5.11;100.00;102748.41;5066585;28;20277;-72
2022/01/15 04:12:39;;;;;;;58.17;20.30;;;;;;;5.11;100.00;102728.38;5063562;28;20060;-72
2022/01/15 04:15:08;;;;;;;64.05;21.63;;;;;;;5.10;100.00;102727.53;5066195;28;20099;-71
2022/01/15 04:17:35;;;;;;;62.08;20.58;;;;;;;5.09;100.00;102722.38;5060696;28;20052;-73
2022/01/15 04:20:03;;;;;;;61.83;20.00;;;;;;;5.09;100.00;102728.66;5067499;28;20084;-72
2022/01/15 04:22:30;;;;;;;57.70;20.45;;;;;;;5.12;100.00;102728.06;5061815;28;20148;-72
2022/01/15 04:24:56;;;;;;;57.90;19.42;;;;;;;5.11;100.00;102723.69;5067300;28;20092;-70
2022/01/15 04:27:23;;;;;;;57.80;20.63;;;;;;;5.10;100.00;102726.75;5067556;28;20485;-72
2022/01/15 04:29:50;;;;;;;61.85;21.65;;;;;;;5.11;100.00;102720.94;5065511;28;20053;-72
2022/01/15 04:32:18;;;;;;;61.53;22.05;;;;;;;5.10;100.00;102713.81;5056337;28;20057;-69
2022/01/15 04:34:45;;;;;;;55.38;20.33;;;;;;;5.12;100.00;102710.75;5050008;28;20051;-71
2022/01/15 04:37:16;;;;;;;55.28;17.52;;;;;;;5.08;100.00;102713.34;5066812;28;20064;-70
2022/01/15 04:39:42;;;;;;;49.47;19.05;;;;;;;5.09;100.00;102711.38;5059110;28;20173;-70
2022/01/15 04:42:10;;;;;;;47.17;18.20;;;;;;;5.12;100.00;102713.50;5076841;28;20143;-71
2022/01/15 04:44:37;;;;;;;54.17;18.48;;;;;;;5.10;100.00;102704.78;5054223;28;20421;-71
2022/01/15 04:47:05;;;;;;;46.08;17.40;;;;;;;5.10;100.00;102702.84;5068129;28;20055;-72
2022/01/15 04:49:32;;;;;;;46.13;16.33;;;;;;;5.10;100.00;102697.34;5070415;28;20071;-72
2022/01/15 04:51:59;;;;;;;45.88;16.60;;;;;;;5.14;100.00;102695.59;5070243;28;20051;-71
2022/01/15 04:54:26;;;;;;;41.72;16.17;;;;;;;5.11;100.00;102682.53;5070566;28;20045;-72
2022/01/15 04:56:53;;;;;;;43.17;14.75;;;;;;;5.10;100.00;102688.34;5068723;28;20059;-72
2022/01/15 04:59:20;;;;;;;36.38;15.60;;;;;;;5.10;100.00;102691.88;5067852;28;20056;-72
2022/01/15 05:01:47;;;;;;;42.22;17.65;;;;;;;5.16;100.00;102698.03;5072429;28;20102;-73
2022/01/15 05:04:14;;;;;;;37.08;13.00;;;;;;;5.14;100.00;102697.56;5070429;28;20109;-70
2022/01/15 05:06:40;;;;;;;37.05;14.30;;;;;;;5.13;100.00;102695.94;5070219;28;20074;-72
2022/01/15 05:09:07;;;;;;;31.95;12.50;;;;;;;5.08;100.00;102705.09;5070164;28;20139;-72
2022/01/15 05:11:55;;;;;;;31.88;12.30;;;;;;;5.08;100.00;102685.09;5066349;28;20064;-71
2022/01/15 05:14:22;;;;;;;32.15;12.27;;;;;;;5.11;100.00;102685.28;5064958;28;20053;-72
2022/01/15 05:16:48;;;;;;;30.75;12.60;;;;;;;5.09;100.00;102692.19;5069140;28;20044;-72
2022/01/15 05:19:15;;;;;;;27.65;11.00;;;;;;;5.08;100.00;102694.13;5070473;28;20048;-73
2022/01/15 05:21:42;;;;;;;32.38;12.15;;;;;;;5.07;100.00;102692.50;5067484;28;20048;-71
2022/01/15 05:24:08;;;;;;;30.88;12.88;;;;;;;5.07;100.00;102686.22;5075447;28;20056;-72
2022/01/15 05:26:35;;;;;;;33.35;12.60;;;;;;;5.12;100.00;102694.31;5067902;28;20087;-71
2022/01/15 05:29:02;;;;;;;29.83;11.95;;;;;;;5.10;100.00;102691.06;5067850;28;20064;-72
2022/01/15 05:31:29;;;;;;;33.88;12.77;;;;;;;5.11;100.00;102685.28;5067822;28;20088;-70
2022/01/15 05:33:55;;;;;;;30.20;12.73;;;;;;;5.12;100.00;102686.06;5068203;28;20060;-72
2022/01/15 05:36:22;;;;;;;33.42;13.15;;;;;;;5.06;100.00;102688.13;5071685;28;21006;-72
2022/01/15 05:38:49;;;;;;;27.30;11.30;;;;;;;5.07;100.00;102688.97;5062481;28;20052;-72
2022/01/15 05:41:16;;;;;;;29.13;12.13;;;;;;;5.05;100.00;102683.78;5068715;28;20077;-73
2022/01/15 05:43:42;;;;;;;27.98;12.80;;;;;;;5.05;100.00;102683.78;5058589;28;20051;-72
2022/01/15 05:46:09;;;;;;;30.52;12.80;;;;;;;5.07;100.00;102683.47;5063544;28;20094;-72
2022/01/15 05:48:35;;;;;;;29.67;12.68;;;;;;;5.05;100.00;102681.03;5067858;28;20049;-71
2022/01/15 05:51:02;;;;;;;27.08;11.60;;;;;;;5.04;100.00;102687.63;5051277;28;20052;-72
2022/01/15 05:53:28;;;;;;;27.77;11.00;;;;;;;5.03;100.00;102688.75;5062773;28;20514;-73
2022/01/15 05:55:55;;;;;;;31.55;13.68;;;;;;;4.98;100.00;102683.41;5064391;28;20049;-71
2022/01/15 05:58:21;;;;;;;30.15;11.70;;;;;;;4.98;100.00;102683.41;5067952;28;20053;-71
2022/01/15 06:00:48;;;;;;;33.97;14.82;;;;;;;4.99;100.00;102684.19;5068339;28;20048;-72
2022/01/15 06:03:14;;;;;;;32.05;13.55;;;;;;;4.98;100.00;102683.41;5068791;28;20056;-71
2022/01/15 06:05:41;;;;;;;30.73;13.40;;;;;;;4.97;100.00;102679.03;5066949;28;20044;-72
2022/01/15 06:08:07;;;;;;;29.67;12.93;;;;;;;4.95;100.00;102678.53;5057664;28;20088;-71
2022/01/15 06:10:34;;;;;;;29.80;12.77;;;;;;;5.02;100.00;102700.03;5067721;28;20052;-70
2022/01/15 06:13:01;;;;;;;30.38;13.57;;;;;;;4.95;100.00;102689.53;5064266;28;20049;-74
2022/01/15 06:15:28;;;;;;;28.98;12.50;;;;;;;4.93;100.00;102683.53;5067777;28;20087;-72
2022/01/15 06:17:54;;;;;;;28.88;13.32;;;;;;;4.94;100.00;102687.91;5064391;28;20110;-72
2022/01/15 06:20:21;;;;;;;29.83;12.10;;;;;;;4.92;100.00;102687.41;5064659;28;20051;-72
2022/01/15 06:22:47;;;;;;;31.00;12.45;;;;;;;4.90;100.00;102692.38;5058696;28;20053;-74
2022/01/15 06:25:14;;;;;;;33.10;14.43;;;;;;;4.93;100.00;102689.00;5068827;28;20544;-72
2022/01/15 06:27:40;;;;;;;37.08;15.52;;;;;;;4.95;100.00;102689.53;5064682;28;20076;-74
2022/01/15 06:30:07;;;;;;;30.65;14.30;;;;;;;4.91;100.00;102683.03;5055792;28;20053;-73
2022/01/15 06:32:37;;;;;;;33.13;15.07;;;;;;;4.94;100.00;102690.66;5062937;28;20048;-74
2022/01/15 06:35:06;;;;;;;32.60;13.32;;;;;;;4.94;100.00;102689.81;5063283;28;20044;-71
2022/01/15 06:37:32;;;;;;;35.60;14.40;;;;;;;4.89;100.00;102689.94;5071463;28;20049;-73
2022/01/15 06:39:59;;;;;;;32.85;14.70;;;;;;;4.86;100.00;102685.88;5068857;28;20059;-71
2022/01/15 06:42:26;;;;;;;29.35;12.77;;;;;;;4.85;100.00;102689.75;5057470;28;20055;-70
2022/01/15 06:44:52;;;;;;;31.60;13.27;;;;;;;4.83;100.00;102685.72;5068242;28;20049;-72
2022/01/15 06:47:19;;;;;;;26.88;12.63;;;;;;;4.85;100.00;102684.28;5065741;28;20440;-72
2022/01/15 06:49:45;;;;;;;30.35;13.13;;;;;;;4.83;100.00;102686.50;5067097;28;20048;-71
2022/01/15 06:52:12;;;;;;;29.38;12.77;;;;;;;4.84;100.00;102677.19;5066777;28;20044;-72
2022/01/15 06:54:38;;;;;;;31.75;13.57;;;;;;;4.83;100.00;102681.03;5062764;28;20143;-72
2022/01/15 06:57:05;;;;;;;31.08;13.38;;;;;;;4.82;100.00;102684.91;5073953;28;20508;-73
2022/01/15 06:59:32;;;;;;;33.40;13.85;;;;;;;4.78;100.00;102683.91;5059777;28;20159;-71
2022/01/15 07:01:59;;;;;;;33.92;13.85;;;;;;;4.78;100.00;102683.91;5059856;28;20072;-72
2022/01/15 07:04:27;;;;;;;19.98;8.95;;;;;;;4.67;100.00;102673.47;5065332;28;20044;-70
2022/01/15 07:06:54;;;;;;;25.83;11.35;;;;;;;4.64;100.00;102680.41;5063965;28;20041;-71
2022/01/15 07:09:20;;;;;;;32.00;14.10;;;;;;;4.64;100.00;102674.91;5065954;28;20056;-71
2022/01/15 07:11:47;;;;;;;30.58;14.60;;;;;;;4.66;100.00;102672.66;5073987;28;20121;-71
2022/01/15 07:14:13;;;;;;;26.67;11.95;;;;;;;4.64;100.00;102676.84;5058245;28;20048;-72
2022/01/15 07:16:40;;;;;;;31.23;13.77;;;;;;;4.61;100.00;102681.03;5068654;28;20052;-71
2022/01/15 07:19:06;;;;;;;28.25;11.52;;;;;;;4.57;100.00;102666.31;5068228;28;20402;-73
2022/01/15 07:21:33;;;;;;;28.17;13.43;;;;;;;4.59;100.00;102676.97;5064593;28;20103;-72
2022/01/15 07:23:59;;;;;;;29.33;12.30;;;;;;;4.57;100.00;102670.97;5077596;28;20139;-72
2022/01/15 07:26:26;;;;;;;31.33;12.57;;;;;;;4.58;100.00;102664.38;5065742;28;20048;-70
2022/01/15 07:28:52;;;;;;;28.35;10.95;;;;;;;4.59;100.00;102657.78;5067031;28;20094;-72
2022/01/15 07:31:19;;;;;;;30.27;12.63;;;;;;;4.55;100.00;102663.06;5066924;28;20087;-71
2022/01/15 07:33:45;;;;;;;27.90;12.15;;;;;;;4.57;100.00;102651.78;5060809;28;20055;-71
2022/01/15 07:36:13;;;;;;;28.95;11.30;;;;;;;4.55;100.00;102646.63;5068214;28;20179;-71
2022/01/15 07:38:39;;;;;;;34.05;12.85;;;;;;;4.52;100.00;102644.50;5061460;28;20588;-72
2022/01/15 07:41:11;;;;;;;35.10;13.75;;;;;;;4.53;100.00;102646.09;5065695;28;20051;-70
2022/01/15 07:43:37;;;;;;;32.17;14.00;;;;;;;4.55;100.00;102646.63;5067548;28;20049;-70
2022/01/15 07:46:04;;;;;;;33.90;13.30;;;;;;;4.56;100.00;102647.44;5065831;28;21903;-73
2022/01/15 07:48:31;;;;;;;31.30;11.65;;;;;;;4.44;100.00;102647.97;5065705;28;20227;-76
2022/01/15 07:50:57;;;;;;;33.20;12.35;;;;;;;4.46;100.00;102653.94;5069456;28;20076;-74
2022/01/15 07:53:24;;;;;;;31.05;11.93;;;;;;;4.40;100.00;102652.47;5071107;28;20127;-76
2022/01/15 07:55:50;;;;;;;35.85;13.20;;;;;;;4.41;100.00;102654.06;5067457;28;20464;-77
2022/01/15 07:58:17;;;;;;;30.13;11.57;;;;;;;4.35;100.00;102652.56;5071650;28;20063;-75
2022/01/15 08:00:44;;;;;;;31.48;11.38;;;;;;;4.32;100.00;102644.97;5069849;28;20163;-75
2022/01/15 08:03:10;;;;;;;37.83;14.88;;;;;;;4.35;100.00;102646.25;5071552;28;20114;-75
2022/01/15 08:05:37;;;;;;;36.40;13.93;;;;;;;4.42;100.00;102644.72;5069569;28;20148;-75
2022/01/15 08:08:04;;;;;;;37.95;13.10;;;;;;;4.45;100.00;102649.59;5071164;28;20463;-75
2022/01/15 08:10:31;;;;;;;36.60;14.15;;;;;;;4.45;100.00;102646.84;5071347;28;20451;-74
2022/01/15 08:12:57;;;;;;;36.38;14.20;;;;;;;4.43;100.00;102646.38;5071590;28;20080;-76
2022/01/15 08:15:25;;;;;;;35.88;12.68;;;;;;;4.42;100.00;102644.72;5069734;28;20098;-75
2022/01/15 08:17:52;;;;;;;33.55;12.63;;;;;;;4.38;100.00;102646.47;5065082;28;20428;-75
2022/01/15 08:20:19;;;;;;;30.42;12.18;;;;;;;4.27;100.00;102634.13;5067172;28;20142;-74
2022/01/15 08:22:46;;;;;;;34.10;12.73;;;;;;;4.32;100.00;102636.72;5068307;28;20056;-68
2022/01/15 08:25:16;;;;;;;31.40;12.73;;;;;;;4.35;100.00;102647.09;5067883;28;20097;-77
2022/01/15 08:27:43;;;;;;;35.80;13.88;;;;;;;4.37;100.00;102644.84;5069628;28;20049;-77
2022/01/15 08:30:10;;;;;;;33.28;11.90;;;;;;;4.34;100.00;102637.25;5067968;28;20136;-75
2022/01/15 08:32:37;;;;;;;39.03;14.55;;;;;;;4.37;100.00;102628.41;5072967;28;20091;-76
2022/01/15 08:35:08;;;;;;;34.95;12.77;;;;;;;4.34;100.00;102640.00;5082248;28;20059;-74
2022/01/15 08:37:37;;;;;;;36.30;13.32;;;;;;;4.34;100.00;102645.47;5089629;28;20140;-75
2022/01/15 08:40:09;;;;;;;37.10;13.07;;;;;;;4.37;100.00;102642.13;5064452;28;20128;-76
2022/01/15 08:42:37;;;;;;;37.33;13.02;;;;;;;4.41;100.00;102647.78;5066880;28;20052;-76
2022/01/15 08:45:06;;;;;;;35.25;12.93;;;;;;;4.37;100.00;102644.84;5068360;28;20052;-75
2022/01/15 08:47:32;;;;;;;36.40;14.13;;;;;;;4.39;100.00;102652.78;5072026;28;20119;-75
2022/01/15 08:50:00;;;;;;;36.00;13.18;;;;;;;4.40;100.00;102644.25;5076983;28;20113;-74
2022/01/15 08:52:27;;;;;;;33.05;13.10;;;;;;;4.41;100.00;102645.84;5072372;28;20068;-75
2022/01/15 08:54:54;;;;;;;38.72;13.90;;;;;;;4.40;100.00;102644.25;5073330;28;20056;-75
2022/01/15 08:57:20;;;;;;;37.65;13.50;;;;;;;4.41;100.00;102642.28;5070938;28;20135;-76
2022/01/15 08:59:47;;;;;;;38.80;14.32;;;;;;;4.30;100.00;102641.72;5073908;28;20056;-75
2022/01/15 09:02:14;;;;;;;38.95;14.02;;;;;;;4.30;100.00;102643.66;5072869;28;20123;-73
2022/01/15 09:04:40;;;;;;;21.75;8.98;;;;;;;4.15;100.00;102650.28;5069683;28;20499;-77
2022/01/15 09:07:10;;;;;;;38.15;15.27;;;;;;;4.19;100.00;102643.06;5071484;28;20070;-75
2022/01/15 09:09:36;;;;;;;35.72;13.35;;;;;;;4.21;100.00;102649.06;5073408;28;20045;-75
2022/01/15 09:12:03;;;;;;;40.83;18.10;;;;;;;4.26;100.00;102642.66;5071670;28;20053;-75
2022/01/15 09:14:30;;;;;;;42.33;15.88;;;;;;;4.26;100.00;102642.66;5073218;28;20144;-75
2022/01/15 09:16:57;;;;;;;39.30;14.18;;;;;;;4.30;100.00;102646.38;5073719;28;20060;-75
2022/01/15 09:19:24;;;;;;;38.35;14.27;;;;;;;4.27;100.00;102645.09;5072798;28;20145;-76
2022/01/15 09:21:50;;;;;;;37.15;14.05;;;;;;;4.15;100.00;102642.06;5064109;28;20106;-74
2022/01/15 09:24:17;;;;;;;38.47;13.23;;;;;;;4.20;100.00;102641.13;5072846;28;20132;-75
2022/01/15 09:26:59;;;;;;;40.58;14.93;;;;;;;4.24;100.00;102634.75;5067773;28;20124;-73
2022/01/15 09:32:11;;;;;;;;;;;;;;;4.28;100.00;102630.25;5073102;28;20095;-74
2022/01/15 09:34:38;;;;;;;41.70;14.50;;;;;;;4.27;100.00;102617.69;5066497;28;20007;-73
2022/01/15 09:37:06;;;;;;;35.78;13.82;;;;;;;4.33;100.00;102624.69;5072422;28;20056;-77
2022/01/15 09:39:33;;;;;;;40.50;14.48;;;;;;;4.33;100.00;102621.94;5067770;28;20064;-73
2022/01/15 09:42:00;;;;;;;36.78;14.15;;;;;;;4.33;100.00;102618.38;5071121;28;20048;-75
2022/01/15 09:44:27;;;;;;;43.15;17.13;;;;;;;4.34;100.00;102615.31;5088607;28;20142;-73
2022/01/15 09:46:54;;;;;;;43.03;16.95;;;;;;;4.34;100.00;102611.75;5071664;28;20102;-74
2022/01/15 09:49:23;;;;;;;48.13;16.40;;;;;;;4.38;100.00;102613.56;5071198;28;20056;-74
2022/01/15 09:52:02;;;;;;;47.17;17.45;;;;;;;4.48;100.00;102618.81;5077563;28;20532;-76
2022/01/15 09:54:29;;;;;;;42.83;15.63;;;;;;;4.51;100.00;102618.19;5062507;28;20076;-74
2022/01/15 09:56:56;;;;;;;41.03;14.52;;;;;;;4.53;100.00;102615.94;5067903;28;20084;-74
2022/01/15 09:59:22;;;;;;;36.92;13.45;;;;;;;4.43;100.00;102598.94;5062395;28;20076;-74
2022/01/15 10:01:49;;;;;;;38.45;14.15;;;;;;;4.44;100.00;102612.34;5066914;28;20052;-73
2022/01/15 10:04:17;;;;;;;38.83;12.30;;;;;;;4.43;100.00;102598.94;5067105;28;20059;-74
2022/01/15 10:07:15;;;;;;;39.58;14.50;;;;;;;4.39;100.00;102600.69;5066793;28;20493;-74
2022/01/15 10:09:43;;;;;;;34.88;12.55;;;;;;;4.41;100.00;102607.47;5064893;28;20048;-74
2022/01/15 10:12:22;;;;;;;37.53;13.75;;;;;;;4.43;100.00;102610.72;5084433;28;20052;-72
2022/01/15 10:14:48;;;;;;;37.15;13.85;;;;;;;4.41;100.00;102601.19;5063539;28;20127;-78
2022/01/15 10:17:25;;;;;;;35.75;13.15;;;;;;;4.46;100.00;102607.34;5068196;28;20737;-76
2022/01/15 10:19:52;;;;;;;38.90;14.50;;;;;;;4.48;100.00;102607.03;5071752;28;20313;-74
2022/01/15 10:22:22;;;;;;;39.50;13.80;;;;;;;4.48;100.00;102609.78;5070729;28;20044;-76
2022/01/15 10:24:53;;;;;;;37.58;12.65;;;;;;;4.46;100.00;102601.88;5071201;28;20091;-78
2022/01/15 10:27:29;;;;;;;40.88;14.98;;;;;;;4.35;100.00;102581.31;5074049;28;20040;-76
2022/01/15 10:29:59;;;;;;;42.83;15.85;;;;;;;4.47;100.00;102597.19;5059703;28;20733;-76
2022/01/15 10:32:29;;;;;;;37.78;14.70;;;;;;;4.43;100.00;102597.03;5067545;28;20064;-77
2022/01/15 10:34:56;;;;;;;36.72;12.55;;;;;;;4.47;100.00;102592.53;5069659;28;20802;-74
2022/01/15 10:37:37;;;;;;;33.35;12.98;;;;;;;4.54;100.00;102603.88;5066734;28;20133;-75
2022/01/15 10:40:10;;;;;;;37.78;12.77;;;;;;;4.56;100.00;102601.63;5062802;28;20580;-72
2022/01/15 10:42:38;;;;;;;35.17;13.57;;;;;;;4.58;100.00;102595.81;5062464;28;20068;-75
2022/01/15 10:45:13;;;;;;;35.15;12.93;;;;;;;4.55;100.00;102597.25;5078695;28;20136;-74
2022/01/15 10:47:43;;;;;;;;;;;;;;;4.60;100.00;102599.06;5063152;28;20048;-74
2022/01/15 10:50:19;;;;;;;32.58;11.60;;;;;;;4.56;100.00;102587.13;5067073;28;20002;-77
2022/01/15 10:52:45;;;;;;;35.10;13.70;;;;;;;4.54;100.00;102584.69;5063418;28;20056;-76
2022/01/15 10:55:15;;;;;;;33.78;13.40;;;;;;;4.53;100.00;102579.50;5063839;28;20560;-75
2022/01/15 10:57:45;;;;;;;34.53;13.05;;;;;;;4.57;100.00;102575.84;5070153;28;20080;-74
2022/01/15 11:00:21;;;;;;;37.92;13.57;;;;;;;4.63;100.00;102582.00;5070019;28;20067;-74
2022/01/15 11:02:51;;;;;;;35.63;13.05;;;;;;;4.65;100.00;102561.38;5060911;28;20053;-76
2022/01/15 11:05:24;;;;;;;38.00;13.98;;;;;;;4.69;100.00;102558.81;5061164;28;20147;-76
2022/01/15 11:07:52;;;;;;;32.33;11.48;;;;;;;4.61;100.00;102556.81;5062234;28;20052;-75
2022/01/15 11:10:19;;;;;;;27.42;10.27;;;;;;;4.49;100.00;102553.84;5061866;28;20158;-74
2022/01/15 11:12:49;;;;;;;34.88;11.63;;;;;;;4.47;100.00;102551.41;5067149;28;20054;-74
2022/01/15 11:15:15;;;;;;;26.67;10.82;;;;;;;4.42;100.00;102554.28;5071070;28;20051;-75
2022/01/15 11:17:42;;;;;;;35.08;12.73;;;;;;;4.41;100.00;102538.97;5062809;28;20485;-75
2022/01/15 11:20:11;;;;;;;26.30;9.45;;;;;;;4.48;100.00;102549.47;5069361;28;20501;-75
2022/01/15 11:22:41;;;;;;;27.48;9.10;;;;;;;4.51;100.00;102546.09;5069056;28;20113;-74
2022/01/15 11:25:11;;;;;;;27.65;9.70;;;;;;;4.56;100.00;102546.00;5069291;28;20109;-73
2022/01/15 11:27:38;;;;;;;24.92;10.10;;;;;;;4.57;100.00;102542.94;5070309;28;20079;-74
2022/01/15 11:30:05;;;;;;;32.75;12.48;;;;;;;4.60;100.00;102546.97;5069425;28;20056;-74
2022/01/15 11:32:33;;;;;;;32.55;11.85;;;;;;;4.60;100.00;102545.06;5068504;28;20048;-75
2022/01/15 11:35:04;;;;;;;37.90;12.90;;;;;;;4.66;100.00;102548.47;5071566;28;20080;-75
2022/01/15 11:37:56;;;;;;;31.38;11.93;;;;;;;4.65;100.00;102544.91;5058214;28;21336;-75